sensor_id;sensor_type;location;lat;lon;timestamp;P1;durP1;ratioP1;P2;durP2;ratioP2
5890;SDS011;2971;52.420;7.080;2024-03-06T00:01:30;47.07;;;35.70;;
5890;SDS011;2971;52.420;7.080;2024-03-06T00:03:56;46.13;;;36.27;;
5890;SDS011;2971;52.420;7.080;2024-03-06T00:06:22;40.27;;;33.10;;
5890;SDS011;2971;52.420;7.080;2024-03-06T00:08:47;41.67;;;34.60;;
5890;SDS011;2971;52.420;7.080;2024-03-06T00:11:13;39.10;;;34.23;;
5890;SDS011;2971;52.420;7.080;2024-03-06T00:13:38;43.77;;;34.47;;
5890;SDS011;2971;52.420;7.080;2024-03-06T00:16:04;39.30;;;33.60;;
5890;SDS011;2971;52.420;7.080;2024-03-06T00:18:31;44.07;;;35.13;;
5890;SDS011;2971;52.420;7.080;2024-03-06T00:20:56;44.80;;;34.50;;
5890;SDS011;2971;52.420;7.080;2024-03-06T00:23:22;47.20;;;36.17;;
5890;SDS011;2971;52.420;7.080;2024-03-06T00:25:48;44.13;;;35.43;;
5890;SDS011;2971;52.420;7.080;2024-03-06T00:28:13;43.43;;;34.73;;
5890;SDS011;2971;52.420;7.080;2024-03-06T00:30:39;44.13;;;35.13;;
5890;SDS011;2971;52.420;7.080;2024-03-06T00:33:04;43.43;;;34.27;;
5890;SDS011;2971;52.420;7.080;2024-03-06T00:35:31;44.53;;;34.37;;
5890;SDS011;2971;52.420;7.080;2024-03-06T00:37:57;45.30;;;34.77;;
5890;SDS011;2971;52.420;7.080;2024-03-06T00:40:27;45.17;;;35.77;;
5890;SDS011;2971;52.420;7.080;2024-03-06T00:42:52;42.07;;;34.13;;
5890;SDS011;2971;52.420;7.080;2024-03-06T00:45:18;44.63;;;35.10;;
5890;SDS011;2971;52.420;7.080;2024-03-06T00:47:44;42.90;;;35.20;;
5890;SDS011;2971;52.420;7.080;2024-03-06T00:50:09;46.43;;;36.27;;
5890;SDS011;2971;52.420;7.080;2024-03-06T00:52:36;43.60;;;35.90;;
5890;SDS011;2971;52.420;7.080;2024-03-06T00:55:02;45.03;;;36.07;;
5890;SDS011;2971;52.420;7.080;2024-03-06T00:57:27;44.47;;;36.80;;
5890;SDS011;2971;52.420;7.080;2024-03-06T00:59:53;42.43;;;34.90;;
5890;SDS011;2971;52.420;7.080;2024-03-06T01:02:18;43.47;;;35.00;;
5890;SDS011;2971;52.420;7.080;2024-03-06T01:04:44;42.70;;;35.87;;
5890;SDS011;2971;52.420;7.080;2024-03-06T01:07:09;44.80;;;36.10;;
5890;SDS011;2971;52.420;7.080;2024-03-06T01:09:36;40.63;;;35.30;;
5890;SDS011;2971;52.420;7.080;2024-03-06T01:12:02;43.63;;;36.57;;
5890;SDS011;2971;52.420;7.080;2024-03-06T01:14:28;49.70;;;36.50;;
5890;SDS011;2971;52.420;7.080;2024-03-06T01:16:53;46.60;;;35.90;;
5890;SDS011;2971;52.420;7.080;2024-03-06T01:19:19;46.73;;;37.07;;
5890;SDS011;2971;52.420;7.080;2024-03-06T01:21:44;46.93;;;35.90;;
5890;SDS011;2971;52.420;7.080;2024-03-06T01:24:10;43.47;;;36.63;;
5890;SDS011;2971;52.420;7.080;2024-03-06T01:26:37;46.50;;;37.27;;
5890;SDS011;2971;52.420;7.080;2024-03-06T01:29:02;48.37;;;38.67;;
5890;SDS011;2971;52.420;7.080;2024-03-06T01:31:28;44.63;;;36.57;;
5890;SDS011;2971;52.420;7.080;2024-03-06T01:33:53;50.20;;;38.17;;
5890;SDS011;2971;52.420;7.080;2024-03-06T01:36:19;44.33;;;37.10;;
5890;SDS011;2971;52.420;7.080;2024-03-06T01:38:44;48.80;;;38.60;;
5890;SDS011;2971;52.420;7.080;2024-03-06T01:41:11;45.87;;;35.70;;
5890;SDS011;2971;52.420;7.080;2024-03-06T01:43:38;47.50;;;36.33;;
5890;SDS011;2971;52.420;7.080;2024-03-06T01:46:06;48.57;;;38.70;;
5890;SDS011;2971;52.420;7.080;2024-03-06T01:48:32;46.47;;;37.07;;
5890;SDS011;2971;52.420;7.080;2024-03-06T01:51:01;48.20;;;38.87;;
5890;SDS011;2971;52.420;7.080;2024-03-06T01:53:27;46.63;;;38.23;;
5890;SDS011;2971;52.420;7.080;2024-03-06T01:55:55;47.27;;;37.10;;
5890;SDS011;2971;52.420;7.080;2024-03-06T01:58:21;48.43;;;37.93;;
5890;SDS011;2971;52.420;7.080;2024-03-06T02:00:50;47.03;;;38.40;;
5890;SDS011;2971;52.420;7.080;2024-03-06T02:03:16;51.30;;;39.03;;
5890;SDS011;2971;52.420;7.080;2024-03-06T02:05:41;43.57;;;37.43;;
5890;SDS011;2971;52.420;7.080;2024-03-06T02:08:08;49.13;;;38.23;;
5890;SDS011;2971;52.420;7.080;2024-03-06T02:10:34;50.03;;;39.07;;
5890;SDS011;2971;52.420;7.080;2024-03-06T02:12:59;46.60;;;39.07;;
5890;SDS011;2971;52.420;7.080;2024-03-06T02:15:25;49.90;;;37.90;;
5890;SDS011;2971;52.420;7.080;2024-03-06T02:17:52;54.67;;;41.57;;
5890;SDS011;2971;52.420;7.080;2024-03-06T02:20:23;50.93;;;40.53;;
5890;SDS011;2971;52.420;7.080;2024-03-06T02:22:49;48.70;;;38.83;;
5890;SDS011;2971;52.420;7.080;2024-03-06T02:25:14;54.67;;;41.07;;
5890;SDS011;2971;52.420;7.080;2024-03-06T02:27:40;58.80;;;40.93;;
5890;SDS011;2971;52.420;7.080;2024-03-06T02:30:06;52.57;;;41.63;;
5890;SDS011;2971;52.420;7.080;2024-03-06T02:32:32;61.17;;;43.00;;
5890;SDS011;2971;52.420;7.080;2024-03-06T02:34:58;58.80;;;41.53;;
5890;SDS011;2971;52.420;7.080;2024-03-06T02:37:25;52.17;;;40.93;;
5890;SDS011;2971;52.420;7.080;2024-03-06T02:39:50;53.47;;;41.17;;
5890;SDS011;2971;52.420;7.080;2024-03-06T02:42:16;56.87;;;42.97;;
5890;SDS011;2971;52.420;7.080;2024-03-06T02:44:42;53.93;;;41.60;;
5890;SDS011;2971;52.420;7.080;2024-03-06T02:47:08;57.60;;;41.70;;
5890;SDS011;2971;52.420;7.080;2024-03-06T02:49:33;57.50;;;41.50;;
5890;SDS011;2971;52.420;7.080;2024-03-06T02:51:59;57.10;;;42.57;;
5890;SDS011;2971;52.420;7.080;2024-03-06T02:54:28;57.27;;;42.33;;
5890;SDS011;2971;52.420;7.080;2024-03-06T02:56:54;59.70;;;43.03;;
5890;SDS011;2971;52.420;7.080;2024-03-06T02:59:19;61.37;;;44.37;;
5890;SDS011;2971;52.420;7.080;2024-03-06T03:01:45;57.67;;;42.83;;
5890;SDS011;2971;52.420;7.080;2024-03-06T03:04:10;62.47;;;42.87;;
5890;SDS011;2971;52.420;7.080;2024-03-06T03:06:36;58.63;;;43.37;;
5890;SDS011;2971;52.420;7.080;2024-03-06T03:09:02;57.73;;;41.63;;
5890;SDS011;2971;52.420;7.080;2024-03-06T03:11:30;58.43;;;43.47;;
5890;SDS011;2971;52.420;7.080;2024-03-06T03:13:57;60.87;;;43.93;;
5890;SDS011;2971;52.420;7.080;2024-03-06T03:16:22;56.90;;;43.57;;
5890;SDS011;2971;52.420;7.080;2024-03-06T03:18:48;61.57;;;44.97;;
5890;SDS011;2971;52.420;7.080;2024-03-06T03:21:13;59.27;;;42.73;;
5890;SDS011;2971;52.420;7.080;2024-03-06T03:23:39;63.50;;;43.40;;
5890;SDS011;2971;52.420;7.080;2024-03-06T03:26:05;58.17;;;43.73;;
5890;SDS011;2971;52.420;7.080;2024-03-06T03:28:32;58.30;;;43.63;;
5890;SDS011;2971;52.420;7.080;2024-03-06T03:30:58;62.03;;;43.80;;
5890;SDS011;2971;52.420;7.080;2024-03-06T03:33:23;56.20;;;42.43;;
5890;SDS011;2971;52.420;7.080;2024-03-06T03:35:49;58.83;;;42.77;;
5890;SDS011;2971;52.420;7.080;2024-03-06T03:38:14;58.70;;;42.80;;
5890;SDS011;2971;52.420;7.080;2024-03-06T03:40:40;56.90;;;42.40;;
5890;SDS011;2971;52.420;7.080;2024-03-06T03:43:06;55.93;;;42.53;;
5890;SDS011;2971;52.420;7.080;2024-03-06T03:45:33;64.47;;;42.73;;
5890;SDS011;2971;52.420;7.080;2024-03-06T03:47:59;53.03;;;40.13;;
5890;SDS011;2971;52.420;7.080;2024-03-06T03:50:25;57.07;;;42.13;;
5890;SDS011;2971;52.420;7.080;2024-03-06T03:52:50;51.07;;;38.83;;
5890;SDS011;2971;52.420;7.080;2024-03-06T03:55:16;54.47;;;38.63;;
5890;SDS011;2971;52.420;7.080;2024-03-06T03:57:42;52.87;;;38.13;;
5890;SDS011;2971;52.420;7.080;2024-03-06T04:00:08;48.80;;;37.17;;
5890;SDS011;2971;52.420;7.080;2024-03-06T04:02:37;44.00;;;33.80;;
5890;SDS011;2971;52.420;7.080;2024-03-06T04:05:03;44.10;;;33.50;;
5890;SDS011;2971;52.420;7.080;2024-03-06T04:07:30;40.37;;;32.47;;
5890;SDS011;2971;52.420;7.080;2024-03-06T04:09:55;44.07;;;32.37;;
5890;SDS011;2971;52.420;7.080;2024-03-06T04:12:21;44.40;;;30.90;;
5890;SDS011;2971;52.420;7.080;2024-03-06T04:14:46;40.80;;;30.93;;
5890;SDS011;2971;52.420;7.080;2024-03-06T04:17:12;43.47;;;30.60;;
5890;SDS011;2971;52.420;7.080;2024-03-06T04:19:39;44.43;;;29.60;;
5890;SDS011;2971;52.420;7.080;2024-03-06T04:22:04;45.47;;;30.23;;
5890;SDS011;2971;52.420;7.080;2024-03-06T04:24:30;45.73;;;30.30;;
5890;SDS011;2971;52.420;7.080;2024-03-06T04:26:58;45.10;;;30.00;;
5890;SDS011;2971;52.420;7.080;2024-03-06T04:29:24;41.63;;;29.67;;
5890;SDS011;2971;52.420;7.080;2024-03-06T04:31:50;44.47;;;30.60;;
5890;SDS011;2971;52.420;7.080;2024-03-06T04:34:15;41.37;;;29.70;;
5890;SDS011;2971;52.420;7.080;2024-03-06T04:36:42;42.90;;;29.50;;
5890;SDS011;2971;52.420;7.080;2024-03-06T04:39:08;46.73;;;29.93;;
5890;SDS011;2971;52.420;7.080;2024-03-06T04:41:35;45.70;;;29.80;;
5890;SDS011;2971;52.420;7.080;2024-03-06T04:44:01;45.63;;;30.20;;
5890;SDS011;2971;52.420;7.080;2024-03-06T04:46:27;42.77;;;29.10;;
5890;SDS011;2971;52.420;7.080;2024-03-06T04:48:52;46.23;;;29.80;;
5890;SDS011;2971;52.420;7.080;2024-03-06T04:51:18;45.03;;;30.73;;
5890;SDS011;2971;52.420;7.080;2024-03-06T04:53:48;47.73;;;29.93;;
5890;SDS011;2971;52.420;7.080;2024-03-06T04:56:14;40.30;;;29.60;;
5890;SDS011;2971;52.420;7.080;2024-03-06T04:58:41;48.07;;;31.07;;
5890;SDS011;2971;52.420;7.080;2024-03-06T05:01:06;52.97;;;31.17;;
5890;SDS011;2971;52.420;7.080;2024-03-06T05:03:32;48.60;;;32.57;;
5890;SDS011;2971;52.420;7.080;2024-03-06T05:05:58;47.93;;;31.60;;
5890;SDS011;2971;52.420;7.080;2024-03-06T05:08:23;44.73;;;30.30;;
5890;SDS011;2971;52.420;7.080;2024-03-06T05:10:50;46.00;;;31.10;;
5890;SDS011;2971;52.420;7.080;2024-03-06T05:13:16;49.97;;;32.40;;
5890;SDS011;2971;52.420;7.080;2024-03-06T05:15:41;46.40;;;31.63;;
5890;SDS011;2971;52.420;7.080;2024-03-06T05:18:07;51.53;;;31.97;;
5890;SDS011;2971;52.420;7.080;2024-03-06T05:20:34;49.57;;;30.53;;
5890;SDS011;2971;52.420;7.080;2024-03-06T05:23:00;52.03;;;32.87;;
5890;SDS011;2971;52.420;7.080;2024-03-06T05:25:25;48.90;;;31.47;;
5890;SDS011;2971;52.420;7.080;2024-03-06T05:27:52;48.60;;;32.53;;
5890;SDS011;2971;52.420;7.080;2024-03-06T05:30:18;53.57;;;30.67;;
5890;SDS011;2971;52.420;7.080;2024-03-06T05:32:43;49.03;;;31.10;;
5890;SDS011;2971;52.420;7.080;2024-03-06T05:35:09;43.93;;;31.13;;
5890;SDS011;2971;52.420;7.080;2024-03-06T05:37:35;46.07;;;31.50;;
5890;SDS011;2971;52.420;7.080;2024-03-06T05:40:00;45.77;;;29.60;;
5890;SDS011;2971;52.420;7.080;2024-03-06T05:42:28;47.73;;;31.67;;
5890;SDS011;2971;52.420;7.080;2024-03-06T05:44:56;47.03;;;32.37;;
5890;SDS011;2971;52.420;7.080;2024-03-06T05:47:25;45.07;;;32.30;;
5890;SDS011;2971;52.420;7.080;2024-03-06T05:49:51;50.83;;;31.43;;
5890;SDS011;2971;52.420;7.080;2024-03-06T05:52:17;46.53;;;32.33;;
5890;SDS011;2971;52.420;7.080;2024-03-06T05:54:43;49.10;;;31.53;;
5890;SDS011;2971;52.420;7.080;2024-03-06T05:57:08;44.97;;;31.87;;
5890;SDS011;2971;52.420;7.080;2024-03-06T05:59:34;47.00;;;31.23;;
5890;SDS011;2971;52.420;7.080;2024-03-06T06:02:01;46.07;;;31.63;;
5890;SDS011;2971;52.420;7.080;2024-03-06T06:04:26;48.57;;;31.10;;
5890;SDS011;2971;52.420;7.080;2024-03-06T06:06:52;48.13;;;32.13;;
5890;SDS011;2971;52.420;7.080;2024-03-06T06:09:18;47.90;;;31.20;;
5890;SDS011;2971;52.420;7.080;2024-03-06T06:11:44;49.27;;;33.03;;
5890;SDS011;2971;52.420;7.080;2024-03-06T06:14:10;49.73;;;32.27;;
5890;SDS011;2971;52.420;7.080;2024-03-06T06:16:36;49.83;;;29.93;;
5890;SDS011;2971;52.420;7.080;2024-03-06T06:19:03;46.27;;;31.23;;
5890;SDS011;2971;52.420;7.080;2024-03-06T06:21:29;46.07;;;30.80;;
5890;SDS011;2971;52.420;7.080;2024-03-06T06:23:54;43.67;;;30.13;;
5890;SDS011;2971;52.420;7.080;2024-03-06T06:26:21;48.53;;;30.93;;
5890;SDS011;2971;52.420;7.080;2024-03-06T06:28:46;43.00;;;29.97;;
5890;SDS011;2971;52.420;7.080;2024-03-06T06:31:12;47.93;;;30.93;;
5890;SDS011;2971;52.420;7.080;2024-03-06T06:33:38;46.40;;;30.10;;
5890;SDS011;2971;52.420;7.080;2024-03-06T06:36:05;40.43;;;28.43;;
5890;SDS011;2971;52.420;7.080;2024-03-06T06:38:31;43.03;;;29.70;;
5890;SDS011;2971;52.420;7.080;2024-03-06T06:40:57;44.37;;;30.13;;
5890;SDS011;2971;52.420;7.080;2024-03-06T06:43:22;38.63;;;29.33;;
5890;SDS011;2971;52.420;7.080;2024-03-06T06:45:48;46.13;;;29.80;;
5890;SDS011;2971;52.420;7.080;2024-03-06T06:48:14;42.03;;;28.57;;
5890;SDS011;2971;52.420;7.080;2024-03-06T06:50:39;43.20;;;29.03;;
5890;SDS011;2971;52.420;7.080;2024-03-06T06:53:06;44.37;;;29.23;;
5890;SDS011;2971;52.420;7.080;2024-03-06T06:55:32;40.40;;;29.97;;
5890;SDS011;2971;52.420;7.080;2024-03-06T06:57:57;40.17;;;28.90;;
5890;SDS011;2971;52.420;7.080;2024-03-06T07:00:23;39.77;;;28.20;;
5890;SDS011;2971;52.420;7.080;2024-03-06T07:02:50;41.73;;;28.60;;
5890;SDS011;2971;52.420;7.080;2024-03-06T07:05:16;40.40;;;28.40;;
5890;SDS011;2971;52.420;7.080;2024-03-06T07:07:41;45.30;;;29.07;;
5890;SDS011;2971;52.420;7.080;2024-03-06T07:10:09;38.60;;;29.17;;
5890;SDS011;2971;52.420;7.080;2024-03-06T07:12:35;41.20;;;29.30;;
5890;SDS011;2971;52.420;7.080;2024-03-06T07:15:01;39.70;;;28.97;;
5890;SDS011;2971;52.420;7.080;2024-03-06T07:17:28;43.77;;;29.17;;
5890;SDS011;2971;52.420;7.080;2024-03-06T07:19:53;42.97;;;28.70;;
5890;SDS011;2971;52.420;7.080;2024-03-06T07:22:19;38.70;;;27.80;;
5890;SDS011;2971;52.420;7.080;2024-03-06T07:24:44;42.20;;;28.90;;
5890;SDS011;2971;52.420;7.080;2024-03-06T07:27:11;40.10;;;29.03;;
5890;SDS011;2971;52.420;7.080;2024-03-06T07:29:37;39.97;;;28.13;;
5890;SDS011;2971;52.420;7.080;2024-03-06T07:32:03;43.97;;;30.07;;
5890;SDS011;2971;52.420;7.080;2024-03-06T07:34:32;44.10;;;29.17;;
5890;SDS011;2971;52.420;7.080;2024-03-06T07:36:58;41.27;;;28.47;;
5890;SDS011;2971;52.420;7.080;2024-03-06T07:39:27;39.43;;;29.27;;
5890;SDS011;2971;52.420;7.080;2024-03-06T07:41:52;41.50;;;29.20;;
5890;SDS011;2971;52.420;7.080;2024-03-06T07:44:20;41.87;;;28.90;;
5890;SDS011;2971;52.420;7.080;2024-03-06T07:46:46;39.53;;;28.97;;
5890;SDS011;2971;52.420;7.080;2024-03-06T07:49:12;39.67;;;29.63;;
5890;SDS011;2971;52.420;7.080;2024-03-06T07:51:37;40.53;;;29.50;;
5890;SDS011;2971;52.420;7.080;2024-03-06T07:54:03;42.17;;;28.83;;
5890;SDS011;2971;52.420;7.080;2024-03-06T07:56:29;42.30;;;29.00;;
5890;SDS011;2971;52.420;7.080;2024-03-06T07:58:55;42.30;;;29.00;;
5890;SDS011;2971;52.420;7.080;2024-03-06T08:01:22;39.57;;;29.33;;
5890;SDS011;2971;52.420;7.080;2024-03-06T08:03:48;38.73;;;28.70;;
5890;SDS011;2971;52.420;7.080;2024-03-06T08:06:13;40.73;;;29.17;;
5890;SDS011;2971;52.420;7.080;2024-03-06T08:08:42;42.90;;;29.87;;
5890;SDS011;2971;52.420;7.080;2024-03-06T08:11:09;42.13;;;29.30;;
5890;SDS011;2971;52.420;7.080;2024-03-06T08:13:36;40.40;;;28.30;;
5890;SDS011;2971;52.420;7.080;2024-03-06T08:16:02;37.87;;;28.73;;
5890;SDS011;2971;52.420;7.080;2024-03-06T08:18:30;37.53;;;27.90;;
5890;SDS011;2971;52.420;7.080;2024-03-06T08:20:56;38.97;;;28.17;;
5890;SDS011;2971;52.420;7.080;2024-03-06T08:23:21;36.30;;;27.67;;
5890;SDS011;2971;52.420;7.080;2024-03-06T08:25:48;35.93;;;27.93;;
5890;SDS011;2971;52.420;7.080;2024-03-06T08:28:14;34.20;;;27.27;;
5890;SDS011;2971;52.420;7.080;2024-03-06T08:30:40;34.93;;;27.83;;
5890;SDS011;2971;52.420;7.080;2024-03-06T08:33:06;34.90;;;27.63;;
5890;SDS011;2971;52.420;7.080;2024-03-06T08:35:33;36.73;;;27.83;;
5890;SDS011;2971;52.420;7.080;2024-03-06T08:37:59;36.40;;;27.93;;
5890;SDS011;2971;52.420;7.080;2024-03-06T08:40:25;32.77;;;27.30;;
5890;SDS011;2971;52.420;7.080;2024-03-06T08:42:52;34.60;;;28.07;;
5890;SDS011;2971;52.420;7.080;2024-03-06T08:45:17;37.13;;;27.57;;
5890;SDS011;2971;52.420;7.080;2024-03-06T08:47:43;31.73;;;27.20;;
5890;SDS011;2971;52.420;7.080;2024-03-06T08:50:10;32.97;;;28.53;;
5890;SDS011;2971;52.420;7.080;2024-03-06T08:52:37;32.50;;;26.63;;
5890;SDS011;2971;52.420;7.080;2024-03-06T08:55:02;31.77;;;28.27;;
5890;SDS011;2971;52.420;7.080;2024-03-06T08:57:31;34.57;;;28.50;;
5890;SDS011;2971;52.420;7.080;2024-03-06T08:59:57;34.77;;;27.77;;
5890;SDS011;2971;52.420;7.080;2024-03-06T09:02:23;33.40;;;28.10;;
5890;SDS011;2971;52.420;7.080;2024-03-06T09:04:49;32.70;;;27.23;;
5890;SDS011;2971;52.420;7.080;2024-03-06T09:07:16;35.50;;;27.80;;
5890;SDS011;2971;52.420;7.080;2024-03-06T09:09:43;32.77;;;27.67;;
5890;SDS011;2971;52.420;7.080;2024-03-06T09:12:09;36.60;;;27.73;;
5890;SDS011;2971;52.420;7.080;2024-03-06T09:14:36;36.60;;;28.10;;
5890;SDS011;2971;52.420;7.080;2024-03-06T09:17:02;34.83;;;27.07;;
5890;SDS011;2971;52.420;7.080;2024-03-06T09:19:27;32.43;;;26.27;;
5890;SDS011;2971;52.420;7.080;2024-03-06T09:21:53;29.87;;;26.43;;
5890;SDS011;2971;52.420;7.080;2024-03-06T09:24:19;31.73;;;27.07;;
5890;SDS011;2971;52.420;7.080;2024-03-06T09:26:47;34.43;;;27.80;;
5890;SDS011;2971;52.420;7.080;2024-03-06T09:29:13;33.90;;;28.80;;
5890;SDS011;2971;52.420;7.080;2024-03-06T09:31:38;33.50;;;27.37;;
5890;SDS011;2971;52.420;7.080;2024-03-06T09:34:04;38.17;;;28.23;;
5890;SDS011;2971;52.420;7.080;2024-03-06T09:36:29;33.80;;;26.80;;
5890;SDS011;2971;52.420;7.080;2024-03-06T09:38:55;37.10;;;27.00;;
5890;SDS011;2971;52.420;7.080;2024-03-06T09:41:20;32.67;;;27.50;;
5890;SDS011;2971;52.420;7.080;2024-03-06T09:43:47;38.03;;;27.83;;
5890;SDS011;2971;52.420;7.080;2024-03-06T09:46:13;34.70;;;26.73;;
5890;SDS011;2971;52.420;7.080;2024-03-06T09:48:41;32.30;;;27.00;;
5890;SDS011;2971;52.420;7.080;2024-03-06T09:51:10;33.07;;;27.57;;
5890;SDS011;2971;52.420;7.080;2024-03-06T09:53:37;32.73;;;27.50;;
5890;SDS011;2971;52.420;7.080;2024-03-06T09:56:04;33.60;;;27.13;;
5890;SDS011;2971;52.420;7.080;2024-03-06T09:58:30;32.47;;;27.57;;
5890;SDS011;2971;52.420;7.080;2024-03-06T10:00:57;32.27;;;27.30;;
5890;SDS011;2971;52.420;7.080;2024-03-06T10:03:23;35.43;;;27.80;;
5890;SDS011;2971;52.420;7.080;2024-03-06T10:05:49;34.60;;;27.60;;
5890;SDS011;2971;52.420;7.080;2024-03-06T10:08:14;32.53;;;27.37;;
5890;SDS011;2971;52.420;7.080;2024-03-06T10:10:41;35.63;;;27.90;;
5890;SDS011;2971;52.420;7.080;2024-03-06T10:13:07;32.10;;;27.37;;
5890;SDS011;2971;52.420;7.080;2024-03-06T10:15:33;32.47;;;27.53;;
5890;SDS011;2971;52.420;7.080;2024-03-06T10:18:12;32.60;;;26.87;;
5890;SDS011;2971;52.420;7.080;2024-03-06T10:20:38;35.30;;;28.30;;
5890;SDS011;2971;52.420;7.080;2024-03-06T10:23:04;32.53;;;27.77;;
5890;SDS011;2971;52.420;7.080;2024-03-06T10:25:29;36.43;;;28.87;;
5890;SDS011;2971;52.420;7.080;2024-03-06T10:28:05;35.73;;;28.27;;
5890;SDS011;2971;52.420;7.080;2024-03-06T10:30:32;32.33;;;27.83;;
5890;SDS011;2971;52.420;7.080;2024-03-06T10:32:58;39.70;;;29.53;;
5890;SDS011;2971;52.420;7.080;2024-03-06T10:35:26;44.90;;;32.70;;
5890;SDS011;2971;52.420;7.080;2024-03-06T10:37:52;38.67;;;30.77;;
5890;SDS011;2971;52.420;7.080;2024-03-06T10:40:18;32.70;;;27.53;;
5890;SDS011;2971;52.420;7.080;2024-03-06T10:42:45;50.87;;;35.37;;
5890;SDS011;2971;52.420;7.080;2024-03-06T10:45:10;53.33;;;35.53;;
5890;SDS011;2971;52.420;7.080;2024-03-06T10:47:38;41.70;;;31.90;;
5890;SDS011;2971;52.420;7.080;2024-03-06T10:50:05;37.27;;;30.07;;
5890;SDS011;2971;52.420;7.080;2024-03-06T10:52:36;38.37;;;29.97;;
5890;SDS011;2971;52.420;7.080;2024-03-06T10:55:03;37.30;;;30.03;;
5890;SDS011;2971;52.420;7.080;2024-03-06T10:57:29;36.80;;;28.77;;
5890;SDS011;2971;52.420;7.080;2024-03-06T10:59:55;34.23;;;28.00;;
5890;SDS011;2971;52.420;7.080;2024-03-06T11:02:23;34.70;;;28.27;;
5890;SDS011;2971;52.420;7.080;2024-03-06T11:04:50;34.67;;;28.40;;
5890;SDS011;2971;52.420;7.080;2024-03-06T11:07:16;33.87;;;29.60;;
5890;SDS011;2971;52.420;7.080;2024-03-06T11:09:43;34.30;;;29.10;;
5890;SDS011;2971;52.420;7.080;2024-03-06T11:12:08;35.97;;;29.57;;
5890;SDS011;2971;52.420;7.080;2024-03-06T11:14:36;34.77;;;28.67;;
5890;SDS011;2971;52.420;7.080;2024-03-06T11:17:03;34.43;;;29.17;;
5890;SDS011;2971;52.420;7.080;2024-03-06T11:19:29;34.20;;;29.33;;
5890;SDS011;2971;52.420;7.080;2024-03-06T11:21:55;35.10;;;30.33;;
5890;SDS011;2971;52.420;7.080;2024-03-06T11:24:21;36.00;;;29.67;;
5890;SDS011;2971;52.420;7.080;2024-03-06T11:26:49;37.30;;;29.33;;
5890;SDS011;2971;52.420;7.080;2024-03-06T11:29:16;35.17;;;29.30;;
5890;SDS011;2971;52.420;7.080;2024-03-06T11:34:28;36.67;;;29.53;;
5890;SDS011;2971;52.420;7.080;2024-03-06T11:36:56;34.17;;;29.00;;
5890;SDS011;2971;52.420;7.080;2024-03-06T11:39:22;35.67;;;29.87;;
5890;SDS011;2971;52.420;7.080;2024-03-06T11:41:49;35.33;;;29.43;;
5890;SDS011;2971;52.420;7.080;2024-03-06T11:44:16;36.07;;;29.90;;
5890;SDS011;2971;52.420;7.080;2024-03-06T11:46:42;37.37;;;29.87;;
5890;SDS011;2971;52.420;7.080;2024-03-06T11:49:14;37.13;;;29.67;;
5890;SDS011;2971;52.420;7.080;2024-03-06T11:51:40;36.90;;;29.13;;
5890;SDS011;2971;52.420;7.080;2024-03-06T11:54:06;35.20;;;29.40;;
5890;SDS011;2971;52.420;7.080;2024-03-06T11:56:31;36.97;;;29.43;;
5890;SDS011;2971;52.420;7.080;2024-03-06T11:58:58;37.20;;;28.93;;
5890;SDS011;2971;52.420;7.080;2024-03-06T12:01:24;33.73;;;28.60;;
5890;SDS011;2971;52.420;7.080;2024-03-06T12:03:49;35.23;;;28.37;;
5890;SDS011;2971;52.420;7.080;2024-03-06T12:06:15;34.20;;;27.20;;
5890;SDS011;2971;52.420;7.080;2024-03-06T12:08:42;31.40;;;27.43;;
5890;SDS011;2971;52.420;7.080;2024-03-06T12:11:07;33.03;;;26.37;;
5890;SDS011;2971;52.420;7.080;2024-03-06T12:13:33;33.13;;;27.43;;
5890;SDS011;2971;52.420;7.080;2024-03-06T12:16:04;31.43;;;27.03;;
5890;SDS011;2971;52.420;7.080;2024-03-06T12:18:31;31.00;;;27.00;;
5890;SDS011;2971;52.420;7.080;2024-03-06T12:20:59;31.57;;;28.10;;
5890;SDS011;2971;52.420;7.080;2024-03-06T12:23:27;33.43;;;27.70;;
5890;SDS011;2971;52.420;7.080;2024-03-06T12:26:01;36.43;;;29.20;;
5890;SDS011;2971;52.420;7.080;2024-03-06T12:28:31;34.10;;;28.73;;
5890;SDS011;2971;52.420;7.080;2024-03-06T12:30:57;31.57;;;28.10;;
5890;SDS011;2971;52.420;7.080;2024-03-06T12:33:28;32.90;;;29.17;;
5890;SDS011;2971;52.420;7.080;2024-03-06T12:36:03;33.27;;;29.67;;
5890;SDS011;2971;52.420;7.080;2024-03-06T12:38:29;32.47;;;28.80;;
5890;SDS011;2971;52.420;7.080;2024-03-06T12:40:55;32.13;;;27.53;;
5890;SDS011;2971;52.420;7.080;2024-03-06T12:43:21;31.80;;;28.27;;
5890;SDS011;2971;52.420;7.080;2024-03-06T12:45:46;31.07;;;27.73;;
5890;SDS011;2971;52.420;7.080;2024-03-06T12:48:12;30.90;;;27.47;;
5890;SDS011;2971;52.420;7.080;2024-03-06T12:50:39;31.20;;;26.87;;
5890;SDS011;2971;52.420;7.080;2024-03-06T12:53:04;30.40;;;27.20;;
5890;SDS011;2971;52.420;7.080;2024-03-06T12:55:30;30.70;;;27.40;;
5890;SDS011;2971;52.420;7.080;2024-03-06T12:57:57;31.37;;;27.97;;
5890;SDS011;2971;52.420;7.080;2024-03-06T13:00:22;31.03;;;27.63;;
5890;SDS011;2971;52.420;7.080;2024-03-06T13:02:49;31.00;;;27.60;;
5890;SDS011;2971;52.420;7.080;2024-03-06T13:05:15;29.80;;;26.30;;
5890;SDS011;2971;52.420;7.080;2024-03-06T13:07:43;33.03;;;27.10;;
5890;SDS011;2971;52.420;7.080;2024-03-06T13:10:09;30.77;;;26.97;;
5890;SDS011;2971;52.420;7.080;2024-03-06T13:12:35;30.63;;;27.33;;
5890;SDS011;2971;52.420;7.080;2024-03-06T13:15:01;31.07;;;27.43;;
5890;SDS011;2971;52.420;7.080;2024-03-06T13:17:26;31.20;;;26.60;;
5890;SDS011;2971;52.420;7.080;2024-03-06T13:19:54;28.73;;;25.63;;
5890;SDS011;2971;52.420;7.080;2024-03-06T13:22:20;29.30;;;26.00;;
5890;SDS011;2971;52.420;7.080;2024-03-06T13:24:47;27.57;;;24.67;;
5890;SDS011;2971;52.420;7.080;2024-03-06T13:27:13;27.50;;;24.50;;
5890;SDS011;2971;52.420;7.080;2024-03-06T13:29:38;35.70;;;31.80;;
5890;SDS011;2971;52.420;7.080;2024-03-06T13:32:04;32.60;;;27.90;;
5890;SDS011;2971;52.420;7.080;2024-03-06T13:34:31;31.27;;;26.53;;
5890;SDS011;2971;52.420;7.080;2024-03-06T13:36:56;31.43;;;27.57;;
5890;SDS011;2971;52.420;7.080;2024-03-06T13:39:22;29.67;;;26.50;;
5890;SDS011;2971;52.420;7.080;2024-03-06T13:41:49;31.90;;;28.20;;
5890;SDS011;2971;52.420;7.080;2024-03-06T13:44:14;30.60;;;26.67;;
5890;SDS011;2971;52.420;7.080;2024-03-06T13:46:40;29.13;;;25.70;;
5890;SDS011;2971;52.420;7.080;2024-03-06T13:49:06;31.00;;;26.17;;
5890;SDS011;2971;52.420;7.080;2024-03-06T13:51:31;30.17;;;26.83;;
5890;SDS011;2971;52.420;7.080;2024-03-06T13:53:57;30.23;;;26.93;;
5890;SDS011;2971;52.420;7.080;2024-03-06T13:56:22;31.37;;;27.93;;
5890;SDS011;2971;52.420;7.080;2024-03-06T13:58:49;29.80;;;26.53;;
5890;SDS011;2971;52.420;7.080;2024-03-06T14:01:15;31.07;;;27.17;;
5890;SDS011;2971;52.420;7.080;2024-03-06T14:03:40;30.53;;;27.23;;
5890;SDS011;2971;52.420;7.080;2024-03-06T14:06:06;31.43;;;27.30;;
5890;SDS011;2971;52.420;7.080;2024-03-06T14:08:33;29.63;;;26.40;;
5890;SDS011;2971;52.420;7.080;2024-03-06T14:10:59;29.03;;;26.00;;
5890;SDS011;2971;52.420;7.080;2024-03-06T14:13:24;29.30;;;26.10;;
5890;SDS011;2971;52.420;7.080;2024-03-06T14:15:51;31.23;;;27.27;;
5890;SDS011;2971;52.420;7.080;2024-03-06T14:18:18;29.53;;;26.13;;
5890;SDS011;2971;52.420;7.080;2024-03-06T14:20:44;29.97;;;26.77;;
5890;SDS011;2971;52.420;7.080;2024-03-06T14:23:09;31.63;;;26.93;;
5890;SDS011;2971;52.420;7.080;2024-03-06T14:25:35;30.73;;;25.73;;
5890;SDS011;2971;52.420;7.080;2024-03-06T14:28:03;33.37;;;26.90;;
5890;SDS011;2971;52.420;7.080;2024-03-06T14:30:29;34.70;;;26.03;;
5890;SDS011;2971;52.420;7.080;2024-03-06T14:32:55;29.20;;;25.83;;
5890;SDS011;2971;52.420;7.080;2024-03-06T14:35:21;29.67;;;26.30;;
5890;SDS011;2971;52.420;7.080;2024-03-06T14:37:47;28.97;;;25.50;;
5890;SDS011;2971;52.420;7.080;2024-03-06T14:40:14;29.37;;;26.13;;
5890;SDS011;2971;52.420;7.080;2024-03-06T14:42:39;28.57;;;25.57;;
5890;SDS011;2971;52.420;7.080;2024-03-06T14:45:05;30.67;;;24.87;;